sensor_id;sensor_type;location;lat;lon;timestamp;pressure;altitude;pressure_sealevel;temperature;humidity
77871;BME280;67067;46.850;7.578;2023-06-14T00:00:26;94693.34;;;13.49;33.30
77871;BME280;67067;46.850;7.578;2023-06-14T00:01:28;94695.50;;;13.47;33.48
77871;BME280;67067;46.850;7.578;2023-06-14T00:02:32;94697.13;;;13.42;33.57
77871;BME280;67067;46.850;7.578;2023-06-14T00:03:34;94693.97;;;13.40;33.42
77871;BME280;67067;46.850;7.578;2023-06-14T00:04:38;94700.06;;;13.41;33.14
77871;BME280;67067;46.850;7.578;2023-06-14T00:05:40;94694.28;;;13.34;33.60
77871;BME280;67067;46.850;7.578;2023-06-14T00:06:44;94692.38;;;13.34;33.82
77871;BME280;67067;46.850;7.578;2023-06-14T00:07:49;94698.78;;;13.33;34.14
77871;BME280;67067;46.850;7.578;2023-06-14T00:08:54;94694.84;;;13.31;34.11
77871;BME280;67067;46.850;7.578;2023-06-14T00:09:56;94698.00;;;13.33;33.71
77871;BME280;67067;46.850;7.578;2023-06-14T00:10:57;94692.22;;;13.25;33.83
77871;BME280;67067;46.850;7.578;2023-06-14T00:12:02;94687.69;;;13.26;33.71
77871;BME280;67067;46.850;7.578;2023-06-14T00:13:04;94691.72;;;13.23;33.60
77871;BME280;67067;46.850;7.578;2023-06-14T00:14:06;94695.50;;;13.17;33.91
77871;BME280;67067;46.850;7.578;2023-06-14T00:15:08;94696.06;;;13.14;33.94
77871;BME280;67067;46.850;7.578;2023-06-14T00:16:11;94699.81;;;13.13;33.75
77871;BME280;67067;46.850;7.578;2023-06-14T00:17:12;94700.56;;;13.13;33.78
77871;BME280;67067;46.850;7.578;2023-06-14T00:18:17;94691.03;;;13.12;33.94
77871;BME280;67067;46.850;7.578;2023-06-14T00:19:19;94703.22;;;13.13;34.06
77871;BME280;67067;46.850;7.578;2023-06-14T00:20:21;94707.00;;;13.07;34.38
77871;BME280;67067;46.850;7.578;2023-06-14T00:21:25;94694.81;;;13.06;34.92
77871;BME280;67067;46.850;7.578;2023-06-14T00:22:31;94693.72;;;13.07;34.59
77871;BME280;67067;46.850;7.578;2023-06-14T00:23:36;94700.63;;;13.08;34.45
77871;BME280;67067;46.850;7.578;2023-06-14T00:24:38;94698.53;;;13.05;34.07
77871;BME280;67067;46.850;7.578;2023-06-14T00:25:39;94693.78;;;13.02;34.30
77871;BME280;67067;46.850;7.578;2023-06-14T00:26:41;94697.56;;;12.96;34.75
77871;BME280;67067;46.850;7.578;2023-06-14T00:27:42;94698.16;;;12.88;34.84
77871;BME280;67067;46.850;7.578;2023-06-14T00:28:44;94693.41;;;12.84;35.14
77871;BME280;67067;46.850;7.578;2023-06-14T00:29:46;94689.94;;;12.84;34.76
77871;BME280;67067;46.850;7.578;2023-06-14T00:30:51;94692.91;;;12.82;34.90
77871;BME280;67067;46.850;7.578;2023-06-14T00:31:52;94689.72;;;12.80;34.93
77871;BME280;67067;46.850;7.578;2023-06-14T00:32:54;94698.47;;;12.81;34.78
77871;BME280;67067;46.850;7.578;2023-06-14T00:33:56;94689.22;;;12.78;34.91
77871;BME280;67067;46.850;7.578;2023-06-14T00:34:57;94692.13;;;12.77;35.00
77871;BME280;67067;46.850;7.578;2023-06-14T00:36:03;94688.69;;;12.76;35.15
77871;BME280;67067;46.850;7.578;2023-06-14T00:37:07;94694.88;;;12.66;36.14
77871;BME280;67067;46.850;7.578;2023-06-14T00:38:09;94694.91;;;12.61;36.26
77871;BME280;67067;46.850;7.578;2023-06-14T00:39:11;94690.94;;;12.59;35.89
77871;BME280;67067;46.850;7.578;2023-06-14T00:40:13;94694.91;;;12.61;35.50
77871;BME280;67067;46.850;7.578;2023-06-14T00:41:15;94695.13;;;12.65;35.35
77871;BME280;67067;46.850;7.578;2023-06-14T00:42:23;94697.78;;;12.65;35.29
77871;BME280;67067;46.850;7.578;2023-06-14T00:43:25;94707.91;;;12.63;35.07
77871;BME280;67067;46.850;7.578;2023-06-14T00:44:27;94701.00;;;12.62;34.83
77871;BME280;67067;46.850;7.578;2023-06-14T00:45:29;94701.28;;;12.60;35.16
77871;BME280;67067;46.850;7.578;2023-06-14T00:46:32;94705.84;;;12.54;35.27
77871;BME280;67067;46.850;7.578;2023-06-14T00:47:35;94701.84;;;12.57;35.44
77871;BME280;67067;46.850;7.578;2023-06-14T00:48:39;94701.34;;;12.55;35.62
77871;BME280;67067;46.850;7.578;2023-06-14T00:49:44;94696.59;;;12.52;35.54
77871;BME280;67067;46.850;7.578;2023-06-14T00:50:46;94705.88;;;12.49;35.52
77871;BME280;67067;46.850;7.578;2023-06-14T00:51:50;94700.56;;;12.44;35.99
77871;BME280;67067;46.850;7.578;2023-06-14T00:52:55;94700.31;;;12.46;35.63
77871;BME280;67067;46.850;7.578;2023-06-14T00:53:58;94703.75;;;12.46;35.43
77871;BME280;67067;46.850;7.578;2023-06-14T00:55:00;94696.84;;;12.45;35.59
77871;BME280;67067;46.850;7.578;2023-06-14T00:56:03;94699.00;;;12.43;35.42
77871;BME280;67067;46.850;7.578;2023-06-14T00:57:05;94701.94;;;12.41;35.44
77871;BME280;67067;46.850;7.578;2023-06-14T00:58:07;94702.72;;;12.42;35.60
77871;BME280;67067;46.850;7.578;2023-06-14T00:59:10;94694.25;;;12.40;35.75
77871;BME280;67067;46.850;7.578;2023-06-14T01:00:12;94693.75;;;12.33;36.53
77871;BME280;67067;46.850;7.578;2023-06-14T01:01:16;94698.53;;;12.31;36.21
77871;BME280;67067;46.850;7.578;2023-06-14T01:02:18;94702.28;;;12.30;36.07
77871;BME280;67067;46.850;7.578;2023-06-14T01:03:19;94698.03;;;12.28;36.05
77871;BME280;67067;46.850;7.578;2023-06-14T01:04:24;94703.59;;;12.27;35.79
77871;BME280;67067;46.850;7.578;2023-06-14T01:05:25;94704.16;;;12.24;35.88
77871;BME280;67067;46.850;7.578;2023-06-14T01:06:35;94701.22;;;12.25;35.75
77871;BME280;67067;46.850;7.578;2023-06-14T01:08:51;94707.13;;;12.17;36.18
77871;BME280;67067;46.850;7.578;2023-06-14T01:11:05;94702.94;;;12.06;36.66
77871;BME280;67067;46.850;7.578;2023-06-14T01:12:15;94700.81;;;12.03;36.97
77871;BME280;67067;46.850;7.578;2023-06-14T01:13:24;94709.28;;;12.05;36.52
77871;BME280;67067;46.850;7.578;2023-06-14T01:14:28;94701.88;;;12.02;36.78
77871;BME280;67067;46.850;7.578;2023-06-14T01:15:31;94704.78;;;12.05;36.69
77871;BME280;67067;46.850;7.578;2023-06-14T01:16:33;94706.63;;;12.05;36.94
77871;BME280;67067;46.850;7.578;2023-06-14T01:17:37;94703.22;;;12.04;36.85
77871;BME280;67067;46.850;7.578;2023-06-14T01:18:43;94702.94;;;12.06;36.94
77871;BME280;67067;46.850;7.578;2023-06-14T01:19:50;94707.69;;;12.04;37.00
77871;BME280;67067;46.850;7.578;2023-06-14T01:20:59;94706.38;;;12.06;36.95
77871;BME280;67067;46.850;7.578;2023-06-14T01:22:01;94701.88;;;12.07;36.89
77871;BME280;67067;46.850;7.578;2023-06-14T01:23:02;94703.72;;;12.06;36.89
77871;BME280;67067;46.850;7.578;2023-06-14T01:24:06;94709.28;;;12.05;36.50
77871;BME280;67067;46.850;7.578;2023-06-14T01:25:11;94701.34;;;11.99;36.86
77871;BME280;67067;46.850;7.578;2023-06-14T01:26:13;94706.66;;;11.99;36.93
77871;BME280;67067;46.850;7.578;2023-06-14T01:27:17;94707.47;;;12.00;36.68
77871;BME280;67067;46.850;7.578;2023-06-14T01:28:21;94704.00;;;11.99;36.67
77871;BME280;67067;46.850;7.578;2023-06-14T01:29:23;94702.44;;;11.98;36.93
77871;BME280;67067;46.850;7.578;2023-06-14T01:30:29;94706.94;;;11.98;36.51
77871;BME280;67067;46.850;7.578;2023-06-14T01:31:32;94708.03;;;11.97;36.55
77871;BME280;67067;46.850;7.578;2023-06-14T01:32:42;94711.75;;;11.96;36.62
77871;BME280;67067;46.850;7.578;2023-06-14T01:33:45;94706.69;;;11.94;36.57
77871;BME280;67067;46.850;7.578;2023-06-14T01:34:51;94706.97;;;11.93;36.92
77871;BME280;67067;46.850;7.578;2023-06-14T01:35:55;94704.31;;;11.93;37.13
77871;BME280;67067;46.850;7.578;2023-06-14T01:36:57;94715.44;;;11.95;36.92
77871;BME280;67067;46.850;7.578;2023-06-14T01:38:01;94709.63;;;11.93;36.98
77871;BME280;67067;46.850;7.578;2023-06-14T01:39:07;94714.13;;;11.92;36.57
77871;BME280;67067;46.850;7.578;2023-06-14T01:40:09;94708.81;;;11.92;36.70
77871;BME280;67067;46.850;7.578;2023-06-14T01:41:12;94712.03;;;11.89;36.75
77871;BME280;67067;46.850;7.578;2023-06-14T01:42:14;94720.81;;;11.84;37.19
77871;BME280;67067;46.850;7.578;2023-06-14T01:43:17;94713.19;;;11.67;38.30
77871;BME280;67067;46.850;7.578;2023-06-14T01:44:19;94710.47;;;11.78;37.13
77871;BME280;67067;46.850;7.578;2023-06-14T01:45:21;94706.25;;;11.77;37.19
77871;BME280;67067;46.850;7.578;2023-06-14T01:46:23;94706.28;;;11.72;37.63
77871;BME280;67067;46.850;7.578;2023-06-14T01:47:27;94707.03;;;11.72;37.37
77871;BME280;67067;46.850;7.578;2023-06-14T01:48:31;94709.47;;;11.68;37.27
77871;BME280;67067;46.850;7.578;2023-06-14T01:49:33;94702.28;;;11.69;37.28
77871;BME280;67067;46.850;7.578;2023-06-14T01:50:36;94707.34;;;11.65;37.44
77871;BME280;67067;46.850;7.578;2023-06-14T01:51:38;94704.75;;;11.55;38.47
77871;BME280;67067;46.850;7.578;2023-06-14T01:52:39;94702.09;;;11.45;38.88
77871;BME280;67067;46.850;7.578;2023-06-14T01:53:41;94711.09;;;11.54;38.48
77871;BME280;67067;46.850;7.578;2023-06-14T01:54:45;94704.75;;;11.55;38.24
77871;BME280;67067;46.850;7.578;2023-06-14T01:55:47;94702.09;;;11.50;38.48
77871;BME280;67067;46.850;7.578;2023-06-14T01:56:50;94706.84;;;11.48;38.37
77871;BME280;67067;46.850;7.578;2023-06-14T01:57:54;94705.28;;;11.47;38.35
77871;BME280;67067;46.850;7.578;2023-06-14T01:58:56;94702.34;;;11.43;38.29
77871;BME280;67067;46.850;7.578;2023-06-14T01:59:59;94710.31;;;11.43;38.06
77871;BME280;67067;46.850;7.578;2023-06-14T02:01:01;94702.63;;;11.42;38.13
77871;BME280;67067;46.850;7.578;2023-06-14T02:02:03;94703.41;;;11.42;38.67
77871;BME280;67067;46.850;7.578;2023-06-14T02:03:07;94710.06;;;11.34;39.05
77871;BME280;67067;46.850;7.578;2023-06-14T02:04:09;94706.09;;;11.37;38.90
77871;BME280;67067;46.850;7.578;2023-06-14T02:05:11;94703.16;;;11.33;39.55
77871;BME280;67067;46.850;7.578;2023-06-14T02:06:15;94710.59;;;11.31;39.45
77871;BME280;67067;46.850;7.578;2023-06-14T02:07:17;94706.34;;;11.30;39.59
77871;BME280;67067;46.850;7.578;2023-06-14T02:08:18;94707.16;;;11.31;39.26
77871;BME280;67067;46.850;7.578;2023-06-14T02:09:23;94706.88;;;11.32;39.11
77871;BME280;67067;46.850;7.578;2023-06-14T02:10:28;94708.47;;;11.33;38.79
77871;BME280;67067;46.850;7.578;2023-06-14T02:11:32;94711.13;;;11.33;39.36
77871;BME280;67067;46.850;7.578;2023-06-14T02:12:33;94719.88;;;11.34;39.24
77871;BME280;67067;46.850;7.578;2023-06-14T02:13:35;94714.81;;;11.32;39.68
77871;BME280;67067;46.850;7.578;2023-06-14T02:14:37;94708.47;;;11.28;39.66
77871;BME280;67067;46.850;7.578;2023-06-14T02:15:39;94710.88;;;11.24;39.61
77871;BME280;67067;46.850;7.578;2023-06-14T02:16:41;94714.31;;;11.20;39.78
77871;BME280;67067;46.850;7.578;2023-06-14T02:17:50;94716.19;;;11.19;39.68
77871;BME280;67067;46.850;7.578;2023-06-14T02:18:52;94712.75;;;11.19;39.42
77871;BME280;67067;46.850;7.578;2023-06-14T02:19:54;94722.81;;;11.17;39.46
77871;BME280;67067;46.850;7.578;2023-06-14T02:20:57;94713.81;;;11.18;39.13
77871;BME280;67067;46.850;7.578;2023-06-14T02:21:58;94719.09;;;11.18;38.97
77871;BME280;67067;46.850;7.578;2023-06-14T02:23:00;94718.31;;;11.17;38.96
77871;BME280;67067;46.850;7.578;2023-06-14T02:24:05;94722.03;;;11.16;39.38
77871;BME280;67067;46.850;7.578;2023-06-14T02:25:07;94711.16;;;11.13;39.32
77871;BME280;67067;46.850;7.578;2023-06-14T02:26:09;94710.09;;;11.14;39.36
77871;BME280;67067;46.850;7.578;2023-06-14T02:27:11;94711.16;;;11.13;39.33
77871;BME280;67067;46.850;7.578;2023-06-14T02:28:12;94718.84;;;11.14;39.23
77871;BME280;67067;46.850;7.578;2023-06-14T02:29:14;94715.16;;;11.15;39.05
77871;BME280;67067;46.850;7.578;2023-06-14T02:30:17;94717.28;;;11.13;38.73
77871;BME280;67067;46.850;7.578;2023-06-14T02:31:19;94715.69;;;11.12;38.96
77871;BME280;67067;46.850;7.578;2023-06-14T02:32:22;94714.88;;;11.11;38.93
77871;BME280;67067;46.850;7.578;2023-06-14T02:33:24;94711.69;;;11.09;39.07
77871;BME280;67067;46.850;7.578;2023-06-14T02:34:26;94717.53;;;11.06;39.11
77871;BME280;67067;46.850;7.578;2023-06-14T02:35:29;94719.66;;;11.04;39.11
77871;BME280;67067;46.850;7.578;2023-06-14T02:36:31;94717.28;;;10.92;40.39
77871;BME280;67067;46.850;7.578;2023-06-14T02:37:34;94711.97;;;10.92;39.48
77871;BME280;67067;46.850;7.578;2023-06-14T02:38:36;94718.84;;;10.93;39.25
77871;BME280;67067;46.850;7.578;2023-06-14T02:39:38;94712.78;;;10.93;39.39
77871;BME280;67067;46.850;7.578;2023-06-14T02:40:39;94716.50;;;10.92;39.36
77871;BME280;67067;46.850;7.578;2023-06-14T02:41:43;94715.97;;;10.90;39.53
77871;BME280;67067;46.850;7.578;2023-06-14T02:42:45;94715.97;;;10.90;39.63
77871;BME280;67067;46.850;7.578;2023-06-14T02:43:46;94718.59;;;10.90;39.43
77871;BME280;67067;46.850;7.578;2023-06-14T02:44:48;94721.78;;;10.87;39.23
77871;BME280;67067;46.850;7.578;2023-06-14T02:45:54;94717.03;;;10.84;39.80
77871;BME280;67067;46.850;7.578;2023-06-14T02:46:58;94720.19;;;10.80;39.64
77871;BME280;67067;46.850;7.578;2023-06-14T02:48:02;94720.47;;;10.74;40.86
77871;BME280;67067;46.850;7.578;2023-06-14T02:49:06;94720.97;;;10.71;40.49
77871;BME280;67067;46.850;7.578;2023-06-14T02:50:07;94724.97;;;10.73;40.03
77871;BME280;67067;46.850;7.578;2023-06-14T02:51:09;94729.47;;;10.73;39.98
77871;BME280;67067;46.850;7.578;2023-06-14T02:52:11;94720.97;;;10.71;40.33
77871;BME280;67067;46.850;7.578;2023-06-14T02:53:13;94728.13;;;10.70;40.43
77871;BME280;67067;46.850;7.578;2023-06-14T02:54:14;94732.09;;;10.73;40.06
77871;BME280;67067;46.850;7.578;2023-06-14T02:55:16;94725.47;;;10.70;39.91
77871;BME280;67067;46.850;7.578;2023-06-14T02:56:20;94731.28;;;10.67;39.88
77871;BME280;67067;46.850;7.578;2023-06-14T02:57:24;94725.47;;;10.65;39.96
77871;BME280;67067;46.850;7.578;2023-06-14T02:58:29;94729.72;;;10.66;39.76
77871;BME280;67067;46.850;7.578;2023-06-14T02:59:30;94727.59;;;10.63;40.21
77871;BME280;67067;46.850;7.578;2023-06-14T03:00:32;94726.81;;;10.62;40.49
77871;BME280;67067;46.850;7.578;2023-06-14T03:01:36;94735.28;;;10.59;41.19
77871;BME280;67067;46.850;7.578;2023-06-14T03:02:45;94733.69;;;10.58;40.97
77871;BME280;67067;46.850;7.578;2023-06-14T03:03:48;94727.59;;;10.58;40.64
77871;BME280;67067;46.850;7.578;2023-06-14T03:04:50;94734.75;;;10.57;40.52
77871;BME280;67067;46.850;7.578;2023-06-14T03:05:53;94739.75;;;10.59;40.44
77871;BME280;67067;46.850;7.578;2023-06-14T03:07:01;94737.91;;;10.59;40.43
77871;BME280;67067;46.850;7.578;2023-06-14T03:08:05;94742.41;;;10.59;40.30
77871;BME280;67067;46.850;7.578;2023-06-14T03:09:07;94741.34;;;10.55;40.46
77871;BME280;67067;46.850;7.578;2023-06-14T03:10:13;94733.16;;;10.51;40.42
77871;BME280;67067;46.850;7.578;2023-06-14T03:11:19;94737.63;;;10.50;40.30
77871;BME280;67067;46.850;7.578;2023-06-14T03:12:23;94734.47;;;10.48;40.42
77871;BME280;67067;46.850;7.578;2023-06-14T03:13:26;94741.06;;;10.46;40.80
77871;BME280;67067;46.850;7.578;2023-06-14T03:14:28;94742.91;;;10.45;40.73
77871;BME280;67067;46.850;7.578;2023-06-14T03:15:32;94738.66;;;10.44;40.86
77871;BME280;67067;46.850;7.578;2023-06-14T03:16:34;94740.25;;;10.45;40.98
77871;BME280;67067;46.850;7.578;2023-06-14T03:17:36;94738.94;;;10.43;40.63
77871;BME280;67067;46.850;7.578;2023-06-14T03:18:42;94747.94;;;10.47;40.69
77871;BME280;67067;46.850;7.578;2023-06-14T03:19:43;94743.44;;;10.47;40.61
77871;BME280;67067;46.850;7.578;2023-06-14T03:20:46;94744.47;;;10.46;40.69
77871;BME280;67067;46.850;7.578;2023-06-14T03:21:47;94742.13;;;10.45;40.74
77871;BME280;67067;46.850;7.578;2023-06-14T03:22:50;94740.78;;;10.42;40.57
77871;BME280;67067;46.850;7.578;2023-06-14T03:23:54;94746.34;;;10.41;41.06
77871;BME280;67067;46.850;7.578;2023-06-14T03:24:55;94748.69;;;10.37;41.09
77871;BME280;67067;46.850;7.578;2023-06-14T03:25:57;94745.78;;;10.33;41.11
77871;BME280;67067;46.850;7.578;2023-06-14T03:27:00;94748.69;;;10.32;41.55
77871;BME280;67067;46.850;7.578;2023-06-14T03:28:03;94750.81;;;10.30;41.87
77871;BME280;67067;46.850;7.578;2023-06-14T03:29:05;94753.97;;;10.27;41.78
77871;BME280;67067;46.850;7.578;2023-06-14T03:30:07;94752.09;;;10.27;41.57
77871;BME280;67067;46.850;7.578;2023-06-14T03:31:10;94747.34;;;10.29;41.64
77871;BME280;67067;46.850;7.578;2023-06-14T03:32:14;94755.56;;;10.28;41.84
77871;BME280;67067;46.850;7.578;2023-06-14T03:33:17;94744.47;;;10.31;41.31
77871;BME280;67067;46.850;7.578;2023-06-14T03:34:19;94753.72;;;10.33;41.42
77871;BME280;67067;46.850;7.578;2023-06-14T03:35:21;94745.78;;;10.33;41.10
77871;BME280;67067;46.850;7.578;2023-06-14T03:36:23;94758.22;;;10.33;41.30
77871;BME280;67067;46.850;7.578;2023-06-14T03:37:24;94755.81;;;10.31;41.52
77871;BME280;67067;46.850;7.578;2023-06-14T03:38:26;94760.31;;;10.31;41.60
77871;BME280;67067;46.850;7.578;2023-06-14T03:39:28;94759.28;;;10.32;41.71
77871;BME280;67067;46.850;7.578;2023-06-14T03:40:30;94755.56;;;10.33;41.53
77871;BME280;67067;46.850;7.578;2023-06-14T03:41:36;94750.53;;;10.31;41.48
77871;BME280;67067;46.850;7.578;2023-06-14T03:42:38;94755.03;;;10.31;41.28
77871;BME280;67067;46.850;7.578;2023-06-14T03:43:39;94751.34;;;10.32;41.58
77871;BME280;67067;46.850;7.578;2023-06-14T03:44:41;94751.34;;;10.32;41.18
77871;BME280;67067;46.850;7.578;2023-06-14T03:45:43;94758.75;;;10.30;41.60
77871;BME280;67067;46.850;7.578;2023-06-14T03:46:45;94753.16;;;10.26;41.62
77871;BME280;67067;46.850;7.578;2023-06-14T03:47:47;94755.56;;;10.28;41.51
77871;BME280;67067;46.850;7.578;2023-06-14T03:48:49;94760.84;;;10.28;41.56
77871;BME280;67067;46.850;7.578;2023-06-14T03:49:51;94756.34;;;10.28;41.39
77871;BME280;67067;46.850;7.578;2023-06-14T03:50:53;94758.44;;;10.26;41.58
77871;BME280;67067;46.850;7.578;2023-06-14T03:52:01;94760.03;;;10.27;41.62
77871;BME280;67067;46.850;7.578;2023-06-14T03:53:05;94761.91;;;10.27;41.54
77871;BME280;67067;46.850;7.578;2023-06-14T03:54:08;94762.97;;;10.26;41.52
77871;BME280;67067;46.850;7.578;2023-06-14T03:55:12;94759.25;;;10.27;41.65
77871;BME280;67067;46.850;7.578;2023-06-14T03:56:18;94763.50;;;10.28;41.75
77871;BME280;67067;46.850;7.578;2023-06-14T03:57:21;94764.56;;;10.27;41.74
77871;BME280;67067;46.850;7.578;2023-06-14T03:58:24;94761.38;;;10.24;41.76
77871;BME280;67067;46.850;7.578;2023-06-14T03:59:26;94760.84;;;10.22;41.92
77871;BME280;67067;46.850;7.578;2023-06-14T04:00:28;94764.00;;;10.19;42.37
77871;BME280;67067;46.850;7.578;2023-06-14T04:01:30;94767.72;;;10.23;41.74
77871;BME280;67067;46.850;7.578;2023-06-14T04:02:34;94766.91;;;10.23;41.84
77871;BME280;67067;46.850;7.578;2023-06-14T04:03:38;94767.19;;;10.21;41.82
77871;BME280;67067;46.850;7.578;2023-06-14T04:04:42;94765.03;;;10.08;42.88
77871;BME280;67067;46.850;7.578;2023-06-14T04:05:47;94766.66;;;10.19;42.20
77871;BME280;67067;46.850;7.578;2023-06-14T04:06:54;94768.22;;;10.15;42.28
77871;BME280;67067;46.850;7.578;2023-06-14T04:07:56;94774.06;;;10.17;42.18
77871;BME280;67067;46.850;7.578;2023-06-14T04:09:05;94774.31;;;10.21;42.02
77871;BME280;67067;46.850;7.578;2023-06-14T04:10:07;94773.00;;;10.23;41.72
77871;BME280;67067;46.850;7.578;2023-06-14T04:11:10;94773.78;;;10.24;42.40
77871;BME280;67067;46.850;7.578;2023-06-14T04:12:12;94770.38;;;10.23;42.90
77871;BME280;67067;46.850;7.578;2023-06-14T04:13:14;94774.59;;;10.24;42.43
77871;BME280;67067;46.850;7.578;2023-06-14T04:14:16;94771.94;;;10.24;42.57
77871;BME280;67067;46.850;7.578;2023-06-14T04:15:18;94778.28;;;10.23;42.71
77871;BME280;67067;46.850;7.578;2023-06-14T04:16:26;94777.75;;;10.21;42.58
77871;BME280;67067;46.850;7.578;2023-06-14T04:17:28;94783.84;;;10.22;42.60
77871;BME280;67067;46.850;7.578;2023-06-14T04:18:29;94781.47;;;10.20;42.74
77871;BME280;67067;46.850;7.578;2023-06-14T04:19:31;94788.06;;;10.23;42.75
77871;BME280;67067;46.850;7.578;2023-06-14T04:20:32;94791.00;;;10.27;42.41
77871;BME280;67067;46.850;7.578;2023-06-14T04:21:35;94788.38;;;10.32;42.42
77871;BME280;67067;46.850;7.578;2023-06-14T04:22:38;94787.84;;;10.35;42.29
77871;BME280;67067;46.850;7.578;2023-06-14T04:23:40;94791.56;;;10.39;42.06
77871;BME280;67067;46.850;7.578;2023-06-14T04:24:47;94787.09;;;10.45;42.28
77871;BME280;67067;46.850;7.578;2023-06-14T04:26:01;94785.78;;;10.47;41.99
77871;BME280;67067;46.850;7.578;2023-06-14T04:27:03;94788.97;;;10.49;42.16
77871;BME280;67067;46.850;7.578;2023-06-14T04:28:08;94788.97;;;10.49;42.51
77871;BME280;67067;46.850;7.578;2023-06-14T04:29:14;94786.06;;;10.51;42.64
77871;BME280;67067;46.850;7.578;2023-06-14T04:32:31;94794.00;;;10.51;42.44
77871;BME280;67067;46.850;7.578;2023-06-14T04:33:42;94799.03;;;10.52;42.43
77871;BME280;67067;46.850;7.578;2023-06-14T04:34:54;94805.13;;;10.58;41.99
77871;BME280;67067;46.850;7.578;2023-06-14T04:35:57;94808.56;;;10.59;42.17
77871;BME280;67067;46.850;7.578;2023-06-14T04:37:00;94802.22;;;10.60;42.02
77871;BME280;67067;46.850;7.578;2023-06-14T04:38:09;94805.91;;;10.64;41.92
77871;BME280;67067;46.850;7.578;2023-06-14T04:39:11;94808.03;;;10.67;41.63
77871;BME280;67067;46.850;7.578;2023-06-14T04:40:15;94809.63;;;10.68;41.78
77871;BME280;67067;46.850;7.578;2023-06-14T04:41:17;94808.06;;;10.72;41.86
77871;BME280;67067;46.850;7.578;2023-06-14T04:42:22;94807.81;;;10.74;41.68
77871;BME280;67067;46.850;7.578;2023-06-14T04:43:26;94809.94;;;10.77;41.77
77871;BME280;67067;46.850;7.578;2023-06-14T04:44:31;94811.50;;;10.78;41.72
77871;BME280;67067;46.850;7.578;2023-06-14T04:45:38;94814.69;;;10.80;41.71
77871;BME280;67067;46.850;7.578;2023-06-14T04:46:43;94805.16;;;10.79;42.05
77871;BME280;67067;46.850;7.578;2023-06-14T04:48:00;94821.84;;;10.85;42.13
77871;BME280;67067;46.850;7.578;2023-06-14T04:49:04;94814.44;;;10.87;42.21
77871;BME280;67067;46.850;7.578;2023-06-14T04:50:06;94811.28;;;10.90;42.36
77871;BME280;67067;46.850;7.578;2023-06-14T04:51:09;94814.69;;;10.95;42.10
77871;BME280;67067;46.850;7.578;2023-06-14T04:52:13;94816.03;;;10.98;42.12
77871;BME280;67067;46.850;7.578;2023-06-14T04:53:17;94818.16;;;11.01;41.77
77871;BME280;67067;46.850;7.578;2023-06-14T04:54:22;94817.09;;;11.02;42.03
77871;BME280;67067;46.850;7.578;2023-06-14T04:55:27;94812.06;;;11.01;42.32
77871;BME280;67067;46.850;7.578;2023-06-14T04:56:28;94817.63;;;11.04;42.17
77871;BME280;67067;46.850;7.578;2023-06-14T04:57:31;94821.88;;;11.05;42.03
77871;BME280;67067;46.850;7.578;2023-06-14T04:58:36;94820.81;;;11.06;41.84
77871;BME280;67067;46.850;7.578;2023-06-14T04:59:40;94813.66;;;11.12;41.89
77871;BME280;67067;46.850;7.578;2023-06-14T05:00:44;94819.22;;;11.16;42.02
77871;BME280;67067;46.850;7.578;2023-06-14T05:01:45;94817.38;;;11.16;42.15
77871;BME280;67067;46.850;7.578;2023-06-14T05:02:51;94817.09;;;11.18;42.42
77871;BME280;67067;46.850;7.578;2023-06-14T05:03:55;94830.09;;;11.19;42.56
77871;BME280;67067;46.850;7.578;2023-06-14T05:04:57;94829.56;;;11.17;42.57
77871;BME280;67067;46.850;7.578;2023-06-14T05:06:00;94821.09;;;11.25;42.14
77871;BME280;67067;46.850;7.578;2023-06-14T05:07:02;94821.31;;;11.29;42.34
77871;BME280;67067;46.850;7.578;2023-06-14T05:08:04;94820.53;;;11.34;42.34
77871;BME280;67067;46.850;7.578;2023-06-14T05:09:06;94817.09;;;11.38;42.43
77871;BME280;67067;46.850;7.578;2023-06-14T05:10:10;94820.81;;;11.43;42.33
77871;BME280;67067;46.850;7.578;2023-06-14T05:11:12;94812.84;;;11.48;42.30
77871;BME280;67067;46.850;7.578;2023-06-14T05:12:14;94813.94;;;11.52;42.45
77871;BME280;67067;46.850;7.578;2023-06-14T05:13:19;94811.81;;;11.59;42.29
77871;BME280;67067;46.850;7.578;2023-06-14T05:14:21;94820.28;;;11.66;42.42
77871;BME280;67067;46.850;7.578;2023-06-14T05:15:25;94818.66;;;11.76;42.26
77871;BME280;67067;46.850;7.578;2023-06-14T05:16:30;94820.22;;;11.87;42.50
77871;BME280;67067;46.850;7.578;2023-06-14T05:17:32;94819.41;;;11.97;42.41
77871;BME280;67067;46.850;7.578;2023-06-14T05:18:38;94816.72;;;12.07;42.27
77871;BME280;67067;46.850;7.578;2023-06-14T05:19:41;94815.06;;;12.22;42.17
77871;BME280;67067;46.850;7.578;2023-06-14T05:20:43;94817.09;;;12.46;41.86
77871;BME280;67067;46.850;7.578;2023-06-14T05:21:44;94819.28;;;12.83;41.77
77871;BME280;67067;46.850;7.578;2023-06-14T05:22:49;94818.91;;;13.40;41.08
77871;BME280;67067;46.850;7.578;2023-06-14T05:23:53;94821.41;;;14.10;39.97
77871;BME280;67067;46.850;7.578;2023-06-14T05:24:55;94825.91;;;14.77;39.19
77871;BME280;67067;46.850;7.578;2023-06-14T05:25:56;94826.09;;;15.38;37.37
77871;BME280;67067;46.850;7.578;2023-06-14T05:26:58;94825.31;;;15.99;36.83
77871;BME280;67067;46.850;7.578;2023-06-14T05:28:00;94827.03;;;16.59;36.08
77871;BME280;67067;46.850;7.578;2023-06-14T05:29:04;94824.72;;;17.17;35.38
77871;BME280;67067;46.850;7.578;2023-06-14T05:30:06;94825.56;;;17.72;34.59
77871;BME280;67067;46.850;7.578;2023-06-14T05:31:08;94825.44;;;18.18;33.33
77871;BME280;67067;46.850;7.578;2023-06-14T05:32:10;94826.03;;;18.64;32.60
77871;BME280;67067;46.850;7.578;2023-06-14T05:33:12;94828.28;;;19.06;31.53
77871;BME280;67067;46.850;7.578;2023-06-14T05:34:13;94835.22;;;19.42;29.98
77871;BME280;67067;46.850;7.578;2023-06-14T05:35:15;94828.72;;;19.70;30.48
77871;BME280;67067;46.850;7.578;2023-06-14T05:36:17;94827.47;;;20.06;30.29
77871;BME280;67067;46.850;7.578;2023-06-14T05:37:19;94835.06;;;20.43;29.77
77871;BME280;67067;46.850;7.578;2023-06-14T05:38:21;94833.06;;;20.61;30.04
77871;BME280;67067;46.850;7.578;2023-06-14T05:39:22;94832.84;;;20.45;29.61